EWG1PA LOWW-ELLX
Flight info
| Callsign | EWG1PA |
|---|---|
| Flight time | 1h 17m |
| Altitude | 38000 |
| Route | MEDIX DCT RENKA L610 AMOSA Z104 MISGI T894 BITBU Z110 BETEX |
| Aircraft | A320/M-SDE3FGHIRWY/LB1 |
Departure
| Time | 2026-04-30 19:57 |
|---|---|
| Airport | Vienna International Airport (LOWW) |
Arrival
| Time | 2026-04-30 21:14 |
|---|---|
| Airport | Luxembourg-Findel International Airport (ELLX) |
| Time | Latitude | Longitude | Altitude | Speed | Heading |
|---|---|---|---|---|---|
| 2026-04-30 19:27 | 48.11773 | 16.56126 | 625 ft | 0 kts | 27° |
| 2026-04-30 19:46 | 48.11756 | 16.56112 | 624 ft | 4 kts | 33° |
| 2026-04-30 19:47 | 48.11734 | 16.56088 | 627 ft | 4 kts | 44° |
| 2026-04-30 19:47 | 48.11722 | 16.56069 | 627 ft | 4 kts | 56° |
| 2026-04-30 19:47 | 48.11712 | 16.56022 | 620 ft | 4 kts | 107° |
| 2026-04-30 19:47 | 48.11714 | 16.56012 | 616 ft | 0 kts | 117° |
| 2026-04-30 19:49 | 48.11713 | 16.56015 | 617 ft | 2 kts | 117° |
| 2026-04-30 19:49 | 48.11703 | 16.56043 | 625 ft | 7 kts | 117° |
| 2026-04-30 19:50 | 48.11673 | 16.56133 | 620 ft | 13 kts | 116° |
| 2026-04-30 19:50 | 48.11625 | 16.56277 | 616 ft | 18 kts | 116° |
| 2026-04-30 19:50 | 48.11564 | 16.56473 | 613 ft | 23 kts | 115° |
| 2026-04-30 19:50 | 48.11486 | 16.56712 | 619 ft | 28 kts | 116° |
| 2026-04-30 19:51 | 48.11393 | 16.56989 | 615 ft | 32 kts | 116° |
| 2026-04-30 19:51 | 48.11293 | 16.57304 | 619 ft | 35 kts | 116° |
| 2026-04-30 19:51 | 48.11184 | 16.57636 | 616 ft | 35 kts | 115° |
| 2026-04-30 19:51 | 48.11088 | 16.57915 | 615 ft | 13 kts | 128° |
| 2026-04-30 19:52 | 48.11003 | 16.57955 | 612 ft | 15 kts | 167° |
| 2026-04-30 19:52 | 48.10884 | 16.58002 | 618 ft | 21 kts | 164° |
| 2026-04-30 19:52 | 48.10727 | 16.58066 | 614 ft | 26 kts | 164° |
| 2026-04-30 19:52 | 48.10536 | 16.58148 | 622 ft | 31 kts | 164° |
| 2026-04-30 19:53 | 48.10315 | 16.58244 | 614 ft | 35 kts | 164° |
| 2026-04-30 19:53 | 48.10163 | 16.58305 | 610 ft | 0 kts | 168° |
| 2026-04-30 19:53 | 48.10152 | 16.58309 | 614 ft | 5 kts | 168° |
| 2026-04-30 19:53 | 48.10104 | 16.58292 | 610 ft | 10 kts | 218° |
| 2026-04-30 19:54 | 48.10030 | 16.58227 | 610 ft | 16 kts | 177° |
| 2026-04-30 19:54 | 48.09901 | 16.58278 | 616 ft | 22 kts | 164° |
| 2026-04-30 19:54 | 48.09740 | 16.58348 | 620 ft | 27 kts | 164° |
| 2026-04-30 19:54 | 48.09543 | 16.58430 | 615 ft | 32 kts | 164° |
| 2026-04-30 19:55 | 48.09316 | 16.58525 | 616 ft | 36 kts | 164° |
| 2026-04-30 19:55 | 48.09070 | 16.58631 | 615 ft | 37 kts | 165° |
| 2026-04-30 19:55 | 48.08867 | 16.58716 | 613 ft | 21 kts | 160° |
| 2026-04-30 19:55 | 48.08792 | 16.58885 | 616 ft | 21 kts | 94° |
| 2026-04-30 19:56 | 48.08859 | 16.59074 | 610 ft | 22 kts | 30° |
| 2026-04-30 19:56 | 48.09025 | 16.59067 | 616 ft | 31 kts | 345° |
| 2026-04-30 19:56 | 48.09419 | 16.58900 | 624 ft | 93 kts | 344° |
| 2026-04-30 19:56 | 48.10242 | 16.58554 | 619 ft | 150 kts | 344° |
| 2026-04-30 19:57 | 48.11322 | 16.58086 | 1022 ft | 164 kts | 345° |
| 2026-04-30 19:57 | 48.12386 | 16.57495 | 1788 ft | 166 kts | 325° |
| 2026-04-30 19:57 | 48.12951 | 16.55968 | 2530 ft | 179 kts | 278° |
| 2026-04-30 19:57 | 48.12581 | 16.54176 | 3235 ft | 190 kts | 232° |
| 2026-04-30 19:58 | 48.11646 | 16.52772 | 3902 ft | 190 kts | 226° |
| 2026-04-30 19:58 | 48.10684 | 16.51415 | 4554 ft | 190 kts | 226° |
| 2026-04-30 19:58 | 48.09698 | 16.50022 | 4992 ft | 205 kts | 226° |
| 2026-04-30 19:58 | 48.08606 | 16.48466 | 5259 ft | 229 kts | 226° |
| 2026-04-30 19:59 | 48.07435 | 16.46800 | 5910 ft | 236 kts | 225° |
| 2026-04-30 19:59 | 48.06155 | 16.45078 | 6314 ft | 260 kts | 223° |
| 2026-04-30 19:59 | 48.03228 | 16.41300 | 7524 ft | 288 kts | 222° |
| 2026-04-30 20:00 | 48.01697 | 16.39332 | 8362 ft | 293 kts | 221° |
| 2026-04-30 20:00 | 48.00144 | 16.37329 | 9205 ft | 298 kts | 221° |
| 2026-04-30 20:00 | 47.98650 | 16.35162 | 10043 ft | 302 kts | 233° |
| 2026-04-30 20:00 | 47.97623 | 16.32485 | 10779 ft | 304 kts | 251° |
| 2026-04-30 20:01 | 47.97466 | 16.25911 | 11445 ft | 334 kts | 292° |
| 2026-04-30 20:01 | 47.98266 | 16.22665 | 12072 ft | 341 kts | 294° |
| 2026-04-30 20:01 | 47.99087 | 16.19310 | 12796 ft | 347 kts | 294° |
| 2026-04-30 20:02 | 48.00731 | 16.12415 | 14251 ft | 358 kts | 294° |
| 2026-04-30 20:02 | 48.01562 | 16.08891 | 14903 ft | 362 kts | 294° |
| 2026-04-30 20:03 | 48.03252 | 16.01740 | 16237 ft | 368 kts | 295° |
| 2026-04-30 20:03 | 48.04111 | 15.98122 | 16935 ft | 371 kts | 295° |
| 2026-04-30 20:03 | 48.04976 | 15.94474 | 17614 ft | 374 kts | 295° |
| 2026-04-30 20:03 | 48.05843 | 15.90797 | 18242 ft | 377 kts | 295° |
| 2026-04-30 20:04 | 48.06719 | 15.87075 | 18838 ft | 381 kts | 295° |
| 2026-04-30 20:04 | 48.07606 | 15.83318 | 19380 ft | 385 kts | 296° |
| 2026-04-30 20:04 | 48.08701 | 15.79690 | 19929 ft | 381 kts | 306° |
| 2026-04-30 20:05 | 48.11852 | 15.73389 | 21032 ft | 380 kts | 316° |
| 2026-04-30 20:05 | 48.13533 | 15.70315 | 21595 ft | 383 kts | 316° |
| 2026-04-30 20:05 | 48.16929 | 15.64071 | 22713 ft | 390 kts | 317° |
| 2026-04-30 20:06 | 48.18645 | 15.60907 | 23265 ft | 393 kts | 317° |
| 2026-04-30 20:06 | 48.20377 | 15.57705 | 23798 ft | 397 kts | 317° |
| 2026-04-30 20:06 | 48.22121 | 15.54470 | 24191 ft | 402 kts | 317° |
| 2026-04-30 20:06 | 48.23886 | 15.51199 | 24599 ft | 405 kts | 318° |
| 2026-04-30 20:07 | 48.25663 | 15.47897 | 25026 ft | 408 kts | 319° |
| 2026-04-30 20:07 | 48.27447 | 15.44551 | 25435 ft | 413 kts | 316° |
| 2026-04-30 20:07 | 48.30089 | 15.36655 | 26194 ft | 443 kts | 294° |
| 2026-04-30 20:08 | 48.30834 | 15.32120 | 26570 ft | 449 kts | 291° |
| 2026-04-30 20:08 | 48.31562 | 15.27544 | 26934 ft | 452 kts | 291° |
| 2026-04-30 20:08 | 48.32301 | 15.22931 | 27298 ft | 455 kts | 292° |
| 2026-04-30 20:08 | 48.33047 | 15.18294 | 27628 ft | 458 kts | 292° |
| 2026-04-30 20:09 | 48.33797 | 15.13642 | 27993 ft | 460 kts | 292° |
| 2026-04-30 20:09 | 48.34552 | 15.08945 | 28340 ft | 463 kts | 292° |
| 2026-04-30 20:09 | 48.36059 | 14.99462 | 29043 ft | 469 kts | 292° |
| 2026-04-30 20:10 | 48.37564 | 14.89846 | 29696 ft | 475 kts | 292° |
| 2026-04-30 20:10 | 48.38320 | 14.84999 | 30009 ft | 478 kts | 292° |
| 2026-04-30 20:10 | 48.39079 | 14.80127 | 30326 ft | 480 kts | 292° |
| 2026-04-30 20:11 | 48.40609 | 14.70299 | 30807 ft | 484 kts | 292° |
| 2026-04-30 20:11 | 48.41374 | 14.65352 | 31087 ft | 486 kts | 292° |
| 2026-04-30 20:11 | 48.42134 | 14.60397 | 31367 ft | 487 kts | 292° |
| 2026-04-30 20:12 | 48.43659 | 14.50433 | 31885 ft | 489 kts | 291° |
| 2026-04-30 20:12 | 48.44420 | 14.45452 | 32264 ft | 487 kts | 291° |
| 2026-04-30 20:12 | 48.45178 | 14.40495 | 32664 ft | 485 kts | 291° |
| 2026-04-30 20:13 | 48.45916 | 14.35666 | 32987 ft | 483 kts | 291° |
| 2026-04-30 20:13 | 48.46649 | 14.30838 | 33328 ft | 482 kts | 291° |
| 2026-04-30 20:13 | 48.47392 | 14.25915 | 33688 ft | 481 kts | 291° |
| 2026-04-30 20:13 | 48.48129 | 14.21009 | 34053 ft | 480 kts | 291° |
| 2026-04-30 20:14 | 48.48861 | 14.16112 | 34406 ft | 478 kts | 291° |
| 2026-04-30 20:14 | 48.49548 | 14.11518 | 34701 ft | 477 kts | 291° |
| 2026-04-30 20:14 | 48.50237 | 14.06896 | 34992 ft | 475 kts | 291° |
| 2026-04-30 20:14 | 48.50959 | 14.02041 | 35293 ft | 474 kts | 291° |
| 2026-04-30 20:15 | 48.51679 | 13.97192 | 35586 ft | 473 kts | 291° |
| 2026-04-30 20:15 | 48.52362 | 13.92580 | 35834 ft | 471 kts | 290° |
| 2026-04-30 20:15 | 48.53071 | 13.87762 | 36143 ft | 469 kts | 290° |
| 2026-04-30 20:15 | 48.53732 | 13.83255 | 36393 ft | 468 kts | 290° |
| 2026-04-30 20:16 | 48.54433 | 13.78466 | 36667 ft | 466 kts | 290° |
| 2026-04-30 20:16 | 48.55114 | 13.73799 | 36941 ft | 465 kts | 290° |
| 2026-04-30 20:16 | 48.55810 | 13.69044 | 37197 ft | 463 kts | 290° |
| 2026-04-30 20:16 | 48.56497 | 13.64336 | 37439 ft | 462 kts | 289° |
| 2026-04-30 20:17 | 48.57153 | 13.59820 | 37655 ft | 460 kts | 289° |
| 2026-04-30 20:17 | 48.57822 | 13.55182 | 37847 ft | 460 kts | 289° |
| 2026-04-30 20:17 | 48.58544 | 13.50504 | 38060 ft | 454 kts | 294° |
| 2026-04-30 20:17 | 48.59561 | 13.46042 | 38316 ft | 448 kts | 297° |
| 2026-04-30 20:18 | 48.60619 | 13.41657 | 38393 ft | 447 kts | 297° |
| 2026-04-30 20:18 | 48.62728 | 13.32926 | 38393 ft | 446 kts | 297° |
| 2026-04-30 20:19 | 48.64846 | 13.24121 | 38393 ft | 446 kts | 297° |
| 2026-04-30 20:19 | 48.66952 | 13.15307 | 38392 ft | 446 kts | 297° |
| 2026-04-30 20:20 | 48.69046 | 13.06499 | 38394 ft | 444 kts | 297° |
| 2026-04-30 20:20 | 48.71108 | 12.97760 | 38401 ft | 444 kts | 297° |
| 2026-04-30 20:21 | 48.73177 | 12.88953 | 38404 ft | 444 kts | 297° |
| 2026-04-30 20:21 | 48.75242 | 12.80137 | 38404 ft | 444 kts | 296° |
| 2026-04-30 20:22 | 48.77300 | 12.71313 | 38406 ft | 444 kts | 296° |
| 2026-04-30 20:22 | 48.79347 | 12.62475 | 38408 ft | 444 kts | 296° |
| 2026-04-30 20:23 | 48.81390 | 12.53633 | 38413 ft | 444 kts | 296° |
| 2026-04-30 20:23 | 48.83429 | 12.44791 | 38410 ft | 444 kts | 296° |
| 2026-04-30 20:24 | 48.85457 | 12.35926 | 38411 ft | 444 kts | 296° |
| 2026-04-30 20:24 | 48.87482 | 12.27060 | 38377 ft | 444 kts | 296° |
| 2026-04-30 20:25 | 48.91205 | 12.14374 | 38403 ft | 436 kts | 304° |
| 2026-04-30 20:26 | 48.95330 | 12.02046 | 38411 ft | 436 kts | 304° |
| 2026-04-30 20:26 | 48.99422 | 11.89683 | 38376 ft | 436 kts | 304° |
| 2026-04-30 20:27 | 49.04861 | 11.73120 | 38396 ft | 437 kts | 304° |
| 2026-04-30 20:28 | 49.10310 | 11.56516 | 38400 ft | 438 kts | 303° |
| 2026-04-30 20:30 | 49.17056 | 11.35734 | 38383 ft | 438 kts | 303° |
| 2026-04-30 20:31 | 49.27027 | 11.13155 | 38365 ft | 423 kts | 320° |
| 2026-04-30 20:32 | 49.37158 | 10.96761 | 38400 ft | 425 kts | 320° |
| 2026-04-30 20:33 | 49.44007 | 10.88561 | 38403 ft | 415 kts | 331° |
| 2026-04-30 20:34 | 49.50885 | 10.80396 | 38402 ft | 426 kts | 317° |
| 2026-04-30 20:35 | 49.55745 | 10.68665 | 38371 ft | 436 kts | 307° |
| 2026-04-30 20:35 | 49.60390 | 10.56588 | 38383 ft | 438 kts | 307° |
| 2026-04-30 20:36 | 49.63485 | 10.48493 | 38392 ft | 438 kts | 307° |
| 2026-04-30 20:37 | 49.68137 | 10.36416 | 38366 ft | 438 kts | 307° |
| 2026-04-30 20:37 | 49.71329 | 10.28397 | 38376 ft | 439 kts | 307° |
| 2026-04-30 20:38 | 49.74516 | 10.20352 | 38382 ft | 439 kts | 307° |
| 2026-04-30 20:38 | 49.77583 | 10.12150 | 38385 ft | 445 kts | 299° |
| 2026-04-30 20:39 | 49.79199 | 10.02819 | 38391 ft | 457 kts | 281° |
| 2026-04-30 20:39 | 49.79544 | 9.97930 | 38354 ft | 457 kts | 280° |
| 2026-04-30 20:40 | 49.80477 | 9.84844 | 38382 ft | 457 kts | 280° |
| 2026-04-30 20:40 | 49.81170 | 9.75117 | 38384 ft | 458 kts | 280° |
| 2026-04-30 20:41 | 49.82213 | 9.60430 | 38381 ft | 457 kts | 283° |
| 2026-04-30 20:41 | 49.83628 | 9.50925 | 38365 ft | 452 kts | 288° |
| 2026-04-30 20:42 | 49.85166 | 9.41478 | 38380 ft | 452 kts | 288° |
| 2026-04-30 20:43 | 49.87619 | 9.27406 | 38371 ft | 450 kts | 291° |
| 2026-04-30 20:43 | 49.89591 | 9.18216 | 38372 ft | 449 kts | 293° |
| 2026-04-30 20:44 | 49.92213 | 9.04282 | 38352 ft | 454 kts | 279° |
| 2026-04-30 20:45 | 49.91800 | 8.84633 | 38354 ft | 460 kts | 259° |
| 2026-04-30 20:45 | 49.90444 | 8.74927 | 38347 ft | 461 kts | 260° |
| 2026-04-30 20:46 | 49.87716 | 8.55478 | 38349 ft | 462 kts | 260° |
| 2026-04-30 20:47 | 49.87252 | 8.45673 | 38351 ft | 456 kts | 278° |
| 2026-04-30 20:47 | 49.87722 | 8.40839 | 38342 ft | 452 kts | 287° |
| 2026-04-30 20:48 | 49.89905 | 8.26663 | 38348 ft | 453 kts | 287° |
| 2026-04-30 20:48 | 49.91337 | 8.17138 | 38337 ft | 454 kts | 286° |
| 2026-04-30 20:49 | 49.92768 | 8.07608 | 38368 ft | 453 kts | 286° |
| 2026-04-30 20:50 | 49.94881 | 7.93675 | 38369 ft | 452 kts | 287° |
| 2026-04-30 20:50 | 49.96598 | 7.84288 | 38363 ft | 451 kts | 290° |
| 2026-04-30 20:51 | 49.98455 | 7.74973 | 37559 ft | 457 kts | 289° |
| 2026-04-30 20:51 | 50.00391 | 7.65379 | 35426 ft | 469 kts | 290° |
| 2026-04-30 20:51 | 50.01393 | 7.60565 | 34667 ft | 468 kts | 290° |
| 2026-04-30 20:52 | 50.02392 | 7.55769 | 33941 ft | 465 kts | 290° |
| 2026-04-30 20:52 | 50.03381 | 7.51003 | 33255 ft | 461 kts | 290° |
| 2026-04-30 20:52 | 50.05316 | 7.41571 | 31966 ft | 454 kts | 289° |
| 2026-04-30 20:53 | 50.06261 | 7.36904 | 31360 ft | 450 kts | 289° |
| 2026-04-30 20:53 | 50.07189 | 7.32274 | 30781 ft | 447 kts | 289° |
| 2026-04-30 20:53 | 50.07863 | 7.27566 | 30184 ft | 445 kts | 277° |
| 2026-04-30 20:54 | 50.08285 | 7.18021 | 28943 ft | 439 kts | 274° |
| 2026-04-30 20:54 | 50.08483 | 7.13303 | 28350 ft | 435 kts | 274° |
| 2026-04-30 20:54 | 50.08681 | 7.08613 | 27776 ft | 432 kts | 274° |
| 2026-04-30 20:55 | 50.09068 | 6.99352 | 26648 ft | 426 kts | 274° |
| 2026-04-30 20:55 | 50.09256 | 6.94766 | 26105 ft | 423 kts | 274° |
| 2026-04-30 20:55 | 50.09439 | 6.90205 | 25589 ft | 420 kts | 274° |
| 2026-04-30 20:56 | 50.09369 | 6.81182 | 24552 ft | 414 kts | 264° |
| 2026-04-30 20:56 | 50.08789 | 6.76826 | 24093 ft | 409 kts | 250° |
| 2026-04-30 20:56 | 50.05826 | 6.69471 | 23028 ft | 400 kts | 226° |
| 2026-04-30 20:57 | 50.03994 | 6.66233 | 22500 ft | 398 kts | 226° |
| 2026-04-30 20:57 | 50.02171 | 6.63011 | 22003 ft | 395 kts | 226° |
| 2026-04-30 20:57 | 50.00360 | 6.59814 | 21520 ft | 393 kts | 226° |
| 2026-04-30 20:58 | 49.96252 | 6.54482 | 20559 ft | 382 kts | 205° |
| 2026-04-30 20:58 | 49.93909 | 6.52568 | 20069 ft | 380 kts | 205° |
| 2026-04-30 20:58 | 49.91576 | 6.50671 | 19611 ft | 377 kts | 205° |
| 2026-04-30 20:58 | 49.89260 | 6.48787 | 19160 ft | 375 kts | 205° |
| 2026-04-30 20:59 | 49.84779 | 6.44742 | 18244 ft | 374 kts | 221° |
| 2026-04-30 20:59 | 49.83232 | 6.41530 | 17785 ft | 375 kts | 244° |
| 2026-04-30 21:00 | 49.82915 | 6.33688 | 16856 ft | 371 kts | 283° |
| 2026-04-30 21:00 | 49.84115 | 6.25946 | 15992 ft | 367 kts | 284° |
| 2026-04-30 21:01 | 49.85159 | 6.18513 | 15737 ft | 344 kts | 271° |
| 2026-04-30 21:01 | 49.84733 | 6.14911 | 15503 ft | 334 kts | 243° |
| 2026-04-30 21:01 | 49.81422 | 6.10563 | 14808 ft | 317 kts | 195° |
| 2026-04-30 21:02 | 49.79322 | 6.09518 | 14436 ft | 316 kts | 194° |
| 2026-04-30 21:02 | 49.77227 | 6.08492 | 14093 ft | 315 kts | 194° |
| 2026-04-30 21:02 | 49.75144 | 6.07472 | 13724 ft | 313 kts | 195° |
| 2026-04-30 21:02 | 49.73070 | 6.06450 | 13366 ft | 312 kts | 195° |
| 2026-04-30 21:03 | 49.71013 | 6.05431 | 12999 ft | 310 kts | 195° |
| 2026-04-30 21:03 | 49.68971 | 6.04421 | 12636 ft | 307 kts | 195° |
| 2026-04-30 21:03 | 49.66938 | 6.03417 | 12269 ft | 306 kts | 195° |
| 2026-04-30 21:03 | 49.64926 | 6.02420 | 12027 ft | 299 kts | 195° |
| 2026-04-30 21:04 | 49.62925 | 6.01426 | 11348 ft | 309 kts | 195° |
| 2026-04-30 21:04 | 49.60811 | 6.00616 | 10546 ft | 318 kts | 180° |
| 2026-04-30 21:04 | 49.56701 | 6.03025 | 8824 ft | 329 kts | 150° |
| 2026-04-30 21:05 | 49.54498 | 6.04084 | 7966 ft | 338 kts | 172° |
| 2026-04-30 21:05 | 49.52162 | 6.03696 | 7460 ft | 339 kts | 195° |
| 2026-04-30 21:05 | 49.50125 | 6.01956 | 7097 ft | 335 kts | 218° |
| 2026-04-30 21:05 | 49.48699 | 5.99175 | 6732 ft | 332 kts | 239° |
| 2026-04-30 21:06 | 49.47712 | 5.96012 | 6346 ft | 324 kts | 243° |
| 2026-04-30 21:06 | 49.46793 | 5.92888 | 5973 ft | 317 kts | 243° |
| 2026-04-30 21:06 | 49.45959 | 5.89790 | 5577 ft | 312 kts | 251° |
| 2026-04-30 21:06 | 49.45808 | 5.86490 | 5205 ft | 311 kts | 277° |
| 2026-04-30 21:07 | 49.46556 | 5.83410 | 4831 ft | 308 kts | 304° |
| 2026-04-30 21:07 | 49.48049 | 5.81137 | 4435 ft | 300 kts | 331° |
| 2026-04-30 21:07 | 49.49963 | 5.80101 | 4063 ft | 287 kts | 359° |
| 2026-04-30 21:07 | 49.51847 | 5.80447 | 3697 ft | 270 kts | 29° |
| 2026-04-30 21:08 | 49.53315 | 5.82011 | 3332 ft | 252 kts | 57° |
| 2026-04-30 21:08 | 49.54180 | 5.84246 | 2961 ft | 235 kts | 81° |
| 2026-04-30 21:08 | 49.54249 | 5.86593 | 2900 ft | 208 kts | 93° |
| 2026-04-30 21:08 | 49.54250 | 5.88691 | 2898 ft | 187 kts | 93° |
| 2026-04-30 21:09 | 49.54253 | 5.90644 | 2893 ft | 181 kts | 93° |
| 2026-04-30 21:09 | 49.54255 | 5.92579 | 2898 ft | 181 kts | 93° |
| 2026-04-30 21:09 | 49.54257 | 5.94513 | 2899 ft | 181 kts | 94° |
| 2026-04-30 21:09 | 49.54258 | 5.96445 | 2900 ft | 180 kts | 93° |
| 2026-04-30 21:10 | 49.54427 | 5.98328 | 2897 ft | 173 kts | 79° |
| 2026-04-30 21:10 | 49.54865 | 6.00033 | 2900 ft | 170 kts | 73° |
| 2026-04-30 21:10 | 49.55399 | 6.01648 | 2892 ft | 168 kts | 71° |
| 2026-04-30 21:10 | 49.55966 | 6.03227 | 2905 ft | 168 kts | 69° |
| 2026-04-30 21:11 | 49.56543 | 6.04794 | 2904 ft | 169 kts | 69° |
| 2026-04-30 21:11 | 49.57126 | 6.06359 | 2914 ft | 166 kts | 69° |
| 2026-04-30 21:11 | 49.57677 | 6.07822 | 2803 ft | 149 kts | 69° |
| 2026-04-30 21:11 | 49.58171 | 6.09142 | 2619 ft | 137 kts | 70° |
| 2026-04-30 21:12 | 49.58636 | 6.10389 | 2437 ft | 132 kts | 69° |
| 2026-04-30 21:12 | 49.59092 | 6.11615 | 2286 ft | 131 kts | 68° |
| 2026-04-30 21:12 | 49.59546 | 6.12835 | 2099 ft | 131 kts | 65° |
| 2026-04-30 21:12 | 49.60003 | 6.14060 | 1906 ft | 132 kts | 64° |
| 2026-04-30 21:13 | 49.60461 | 6.15288 | 1728 ft | 131 kts | 62° |
| 2026-04-30 21:13 | 49.60912 | 6.16501 | 1565 ft | 132 kts | 60° |
| 2026-04-30 21:13 | 49.61363 | 6.17713 | 1334 ft | 131 kts | 59° |
| 2026-04-30 21:13 | 49.61811 | 6.18911 | 1189 ft | 129 kts | 58° |
| 2026-04-30 21:14 | 49.62227 | 6.20023 | 1216 ft | 101 kts | 61° |
| 2026-04-30 21:14 | 49.62486 | 6.20728 | 1249 ft | 51 kts | 60° |
| 2026-04-30 21:14 | 49.62594 | 6.20999 | 1240 ft | 20 kts | 49° |
| 2026-04-30 21:14 | 49.62705 | 6.21148 | 1233 ft | 23 kts | 32° |
| 2026-04-30 21:15 | 49.62849 | 6.21279 | 1228 ft | 22 kts | 30° |
| 2026-04-30 21:15 | 49.62871 | 6.21299 | 1228 ft | 0 kts | 31° |
| 2026-04-30 21:15 | 49.62885 | 6.21312 | 1228 ft | 4 kts | 31° |
| 2026-04-30 21:15 | 49.62925 | 6.21331 | 1229 ft | 10 kts | 12° |
| 2026-04-30 21:16 | 49.62999 | 6.21397 | 1228 ft | 15 kts | 61° |
| 2026-04-30 21:16 | 49.63048 | 6.21555 | 1226 ft | 18 kts | 65° |
| 2026-04-30 21:16 | 49.63116 | 6.21628 | 1229 ft | 11 kts | 341° |
| 2026-04-30 21:16 | 49.63185 | 6.21570 | 1230 ft | 11 kts | 330° |
| 2026-04-30 21:17 | 49.63256 | 6.21548 | 1230 ft | 11 kts | 31° |
| 2026-04-30 21:17 | 49.63273 | 6.21607 | 1230 ft | 0 kts | 83° |
| 2026-04-30 21:17 | 49.63279 | 6.21625 | 1230 ft | 3 kts | 53° |
| 2026-04-30 21:17 | 49.63293 | 6.21638 | 1230 ft | 3 kts | 22° |
| 2026-04-30 21:18 | 49.63308 | 6.21640 | 1230 ft | 2 kts | 1° |
| 2026-04-30 21:18 | 49.63315 | 6.21640 | 1230 ft | 1 kts | 359° |
| 2026-04-30 21:18 | 49.63324 | 6.21640 | 1230 ft | 1 kts | 358° |
| 2026-04-30 21:18 | 49.63330 | 6.21639 | 1230 ft | 0 kts | 358° |